Time;durP1;ratioP1;P1;durP2;ratioP2;P2;SDS_P1;SDS_P2;PMS_P1;PMS_P2;Temp;Humidity;BMP_temperature;BMP_pressure;BME280_temperature;BME280_humidity;BME280_pressure;Samples;Min_cycle;Max_cycle;Signal;HPM_P1;HPM_P2
2024/02/29 00:02:39;;;;;;;6.88;4.50;;;;;;;;;;12485138;23;20075;-74
2024/02/29 00:07:42;;;;;;;7.97;4.63;;;;;;;;;;12484576;23;20090;-74
2024/02/29 00:12:47;;;;;;;7.35;4.93;;;;;;;;;;12483575;23;20060;-74
2024/02/29 00:17:50;;;;;;;5.78;4.03;;;;;;;;;;12484165;23;20027;-74
2024/02/29 00:22:54;;;;;;;7.38;4.07;;;;;;;;;;12484190;23;20054;-75
2024/02/29 00:27:59;;;;;;;6.38;4.18;;;;;;;;;;12502325;23;20054;-74
2024/02/29 00:33:04;;;;;;;7.40;4.63;;;;;;;;;;12502931;23;20318;-74
2024/02/29 00:38:07;;;;;;;8.00;4.68;;;;;;;;;;12481984;23;20030;-74
2024/02/29 00:43:12;;;;;;;11.00;5.50;;;;;;;;;;12502503;23;20134;-74
2024/02/29 00:48:15;;;;;;;9.65;5.47;;;;;;;;;;12481941;23;20027;-74
2024/02/29 00:53:19;;;;;;;8.90;5.03;;;;;;;;;;12501700;23;20686;-74
2024/02/29 00:58:23;;;;;;;8.15;4.68;;;;;;;;;;12501180;23;20068;-74
2024/02/29 01:03:27;;;;;;;6.38;4.13;;;;;;;;;;12500612;23;20023;-73
2024/02/29 01:08:30;;;;;;;6.15;3.67;;;;;;;;;;12500623;23;20475;-74
2024/02/29 01:13:35;;;;;;;6.57;3.92;;;;;;;;;;12482871;23;20102;-74
2024/02/29 01:18:40;;;;;;;6.45;3.80;;;;;;;;;;12508913;23;20059;-74
2024/02/29 01:23:43;;;;;;;5.68;3.60;;;;;;;;;;12505646;23;20370;-73
2024/02/29 01:28:47;;;;;;;7.15;3.80;;;;;;;;;;12502755;23;20099;-74
2024/02/29 01:33:51;;;;;;;6.53;3.65;;;;;;;;;;12501324;23;20388;-74
2024/02/29 01:38:54;;;;;;;4.82;3.65;;;;;;;;;;12498325;23;20031;-74
2024/02/29 01:43:59;;;;;;;5.72;3.35;;;;;;;;;;12481592;23;20106;-74
2024/02/29 01:49:02;;;;;;;4.68;3.30;;;;;;;;;;12498055;23;20107;-74
2024/02/29 01:54:06;;;;;;;6.57;3.80;;;;;;;;;;12481231;23;20027;-74
2024/02/29 01:59:11;;;;;;;4.32;3.42;;;;;;;;;;12480515;23;20063;-74
2024/02/29 02:04:14;;;;;;;5.70;3.72;;;;;;;;;;12496319;23;20027;-74
2024/02/29 02:09:17;;;;;;;5.82;3.13;;;;;;;;;;12481051;23;20051;-74
2024/02/29 02:14:22;;;;;;;4.47;3.20;;;;;;;;;;12494705;23;20110;-73
2024/02/29 02:19:25;;;;;;;6.03;3.92;;;;;;;;;;12481246;23;20118;-73
2024/02/29 02:24:30;;;;;;;4.97;3.47;;;;;;;;;;12494736;23;20106;-73
2024/02/29 02:29:33;;;;;;;6.30;3.90;;;;;;;;;;12482060;23;20031;-73
2024/02/29 02:34:36;;;;;;;6.28;4.38;;;;;;;;;;12494649;23;20106;-73
2024/02/29 02:39:41;;;;;;;6.22;3.92;;;;;;;;;;12489810;23;20558;-74
2024/02/29 02:44:44;;;;;;;4.38;3.10;;;;;;;;;;12481779;23;20047;-73
2024/02/29 02:49:47;;;;;;;5.32;3.53;;;;;;;;;;12492933;23;20030;-73
2024/02/29 02:54:52;;;;;;;5.53;3.90;;;;;;;;;;12481166;23;20034;-73
2024/02/29 02:59:55;;;;;;;5.78;3.67;;;;;;;;;;12492630;23;20035;-74
2024/02/29 03:04:59;;;;;;;6.55;3.92;;;;;;;;;;12478592;23;20050;-73
2024/02/29 03:10:04;;;;;;;4.22;3.22;;;;;;;;;;12491778;23;20514;-73
2024/02/29 03:15:09;;;;;;;6.10;3.60;;;;;;;;;;12491907;23;20019;-74
2024/02/29 03:20:13;;;;;;;6.25;3.55;;;;;;;;;;12490844;23;20420;-73
2024/02/29 03:25:18;;;;;;;7.10;4.15;;;;;;;;;;12480377;23;20051;-73
2024/02/29 03:30:21;;;;;;;6.80;4.25;;;;;;;;;;12481717;23;20038;-73
2024/02/29 03:35:24;;;;;;;5.57;3.85;;;;;;;;;;12484855;23;20051;-73
2024/02/29 03:40:29;;;;;;;5.60;3.50;;;;;;;;;;12493461;23;20031;-73
2024/02/29 03:45:32;;;;;;;5.88;3.55;;;;;;;;;;12494210;23;20058;-73
2024/02/29 03:50:35;;;;;;;5.57;3.58;;;;;;;;;;12485628;23;20027;-73
2024/02/29 03:55:42;;;;;;;5.20;3.60;;;;;;;;;;12482695;23;20710;-73
2024/02/29 04:00:45;;;;;;;7.25;4.00;;;;;;;;;;12492695;23;20111;-74
2024/02/29 04:05:48;;;;;;;5.60;3.75;;;;;;;;;;12484951;23;20027;-73
2024/02/29 04:10:53;;;;;;;6.53;3.58;;;;;;;;;;12491561;23;20106;-73
2024/02/29 04:15:56;;;;;;;4.85;3.60;;;;;;;;;;12491166;23;20050;-73
2024/02/29 04:20:59;;;;;;;7.85;4.60;;;;;;;;;;12491078;23;20103;-73
2024/02/29 04:26:04;;;;;;;5.93;4.30;;;;;;;;;;12484116;23;20217;-73
2024/02/29 04:31:08;;;;;;;8.27;4.55;;;;;;;;;;12491456;23;20102;-73
2024/02/29 04:36:12;;;;;;;6.90;4.45;;;;;;;;;;12504864;23;20129;-73
2024/02/29 04:41:17;;;;;;;9.48;5.32;;;;;;;;;;12487475;23;20051;-73
2024/02/29 04:46:20;;;;;;;11.90;6.55;;;;;;;;;;12481410;23;20031;-73
2024/02/29 04:51:24;;;;;;;9.50;5.70;;;;;;;;;;12480704;23;20027;-73
2024/02/29 04:56:28;;;;;;;9.85;5.28;;;;;;;;;;12485494;23;20027;-73
2024/02/29 05:01:32;;;;;;;9.80;5.30;;;;;;;;;;12494084;23;20038;-73
2024/02/29 05:06:36;;;;;;;8.80;5.63;;;;;;;;;;12491035;23;20050;-73
2024/02/29 05:11:41;;;;;;;7.28;5.13;;;;;;;;;;12488699;23;20058;-73
2024/02/29 05:16:44;;;;;;;9.20;5.97;;;;;;;;;;12483883;23;20119;-73
2024/02/29 05:21:48;;;;;;;13.00;7.07;;;;;;;;;;12486458;23;20055;-73
2024/02/29 05:26:52;;;;;;;11.18;6.80;;;;;;;;;;12481803;23;20424;-73
2024/02/29 05:31:56;;;;;;;11.52;6.55;;;;;;;;;;12482844;23;20491;-73
2024/02/29 05:36:59;;;;;;;9.65;6.13;;;;;;;;;;12482023;23;20058;-73
2024/02/29 05:42:04;;;;;;;11.10;6.10;;;;;;;;;;12482392;23;20372;-73
2024/02/29 05:47:07;;;;;;;9.98;6.28;;;;;;;;;;12481652;23;20412;-74
2024/02/29 05:52:11;;;;;;;10.05;6.05;;;;;;;;;;12480773;23;20098;-73
2024/02/29 05:57:16;;;;;;;12.02;6.53;;;;;;;;;;12479968;23;20395;-73
2024/02/29 06:02:19;;;;;;;13.68;7.22;;;;;;;;;;12480722;23;20631;-73
2024/02/29 06:07:23;;;;;;;11.95;6.43;;;;;;;;;;12483563;23;20118;-73
2024/02/29 06:12:29;;;;;;;11.50;6.55;;;;;;;;;;12480973;23;20737;-73
2024/02/29 06:17:32;;;;;;;;;;;;;;;;;;12483551;23;20098;-73
2024/02/29 06:22:35;;;;;;;10.98;6.45;;;;;;;;;;12481913;23;19928;-73
2024/02/29 06:27:40;;;;;;;11.93;7.18;;;;;;;;;;12480707;23;20024;-73
2024/02/29 06:32:44;;;;;;;14.55;7.80;;;;;;;;;;12483293;23;20027;-73
2024/02/29 06:37:47;;;;;;;10.52;6.40;;;;;;;;;;12481225;23;20047;-73
2024/02/29 06:42:52;;;;;;;13.48;7.75;;;;;;;;;;12480146;23;20031;-73
2024/02/29 06:47:57;;;;;;;12.68;7.38;;;;;;;;;;12499933;23;20074;-73
2024/02/29 06:53:00;;;;;;;14.55;8.13;;;;;;;;;;12498530;23;20023;-73
2024/02/29 06:58:05;;;;;;;13.60;7.35;;;;;;;;;;12498659;23;20941;-73
2024/02/29 07:03:09;;;;;;;12.02;7.18;;;;;;;;;;12481845;23;20043;-73
2024/02/29 07:08:13;;;;;;;13.32;7.43;;;;;;;;;;12500025;23;20094;-73
2024/02/29 07:13:18;;;;;;;13.30;7.60;;;;;;;;;;12499486;23;20051;-73
2024/02/29 07:18:22;;;;;;;13.73;7.40;;;;;;;;;;12480189;23;20031;-73
2024/02/29 07:23:25;;;;;;;11.20;6.88;;;;;;;;;;12498155;23;20471;-74
2024/02/29 07:28:30;;;;;;;10.88;6.47;;;;;;;;;;12479515;23;20499;-74
2024/02/29 07:33:35;;;;;;;11.85;6.65;;;;;;;;;;12498108;23;20031;-73
2024/02/29 07:38:38;;;;;;;11.93;7.05;;;;;;;;;;12497747;23;20832;-73
2024/02/29 07:43:42;;;;;;;13.40;7.45;;;;;;;;;;12497503;23;20746;-74
2024/02/29 07:48:47;;;;;;;14.02;7.68;;;;;;;;;;12481246;23;20106;-74
2024/02/29 07:53:51;;;;;;;19.20;9.80;;;;;;;;;;12503352;23;20580;-74
2024/02/29 07:58:55;;;;;;;15.32;9.55;;;;;;;;;;12496684;23;20095;-74
2024/02/29 08:03:59;;;;;;;20.33;11.07;;;;;;;;;;12496870;23;20715;-74
2024/02/29 08:09:04;;;;;;;19.17;11.13;;;;;;;;;;12480809;23;20629;-74
2024/02/29 08:14:11;;;;;;;16.98;10.80;;;;;;;;;;12495666;23;20719;-74
2024/02/29 08:19:14;;;;;;;16.65;9.75;;;;;;;;;;12497628;23;20098;-74
2024/02/29 08:24:17;;;;;;;14.65;8.88;;;;;;;;;;12498880;23;20059;-73
2024/02/29 08:29:22;;;;;;;13.20;8.52;;;;;;;;;;12505810;23;20524;-74
2024/02/29 08:34:25;;;;;;;11.50;7.30;;;;;;;;;;12489266;23;20056;-74
2024/02/29 08:39:29;;;;;;;15.35;8.98;;;;;;;;;;12499757;23;20523;-74
2024/02/29 08:44:34;;;;;;;14.45;9.23;;;;;;;;;;12498305;23;20454;-74
2024/02/29 08:49:38;;;;;;;12.88;8.52;;;;;;;;;;12497190;23;20102;-74
2024/02/29 08:54:41;;;;;;;13.55;8.95;;;;;;;;;;12496698;23;20539;-74
2024/02/29 08:59:46;;;;;;;12.20;7.43;;;;;;;;;;12495758;23;20031;-74
2024/02/29 09:04:50;;;;;;;12.90;8.60;;;;;;;;;;12496244;23;20043;-74
2024/02/29 09:09:53;;;;;;;11.77;7.88;;;;;;;;;;12490522;23;20082;-74
2024/02/29 09:15:01;;;;;;;13.82;9.20;;;;;;;;;;12491492;23;20337;-74
2024/02/29 09:20:06;;;;;;;11.40;7.78;;;;;;;;;;12503960;23;20063;-74
2024/02/29 09:25:10;;;;;;;9.18;6.38;;;;;;;;;;12478889;23;20046;-73
2024/02/29 09:30:15;;;;;;;10.38;6.78;;;;;;;;;;12490634;23;20031;-73
2024/02/29 09:35:19;;;;;;;10.02;7.60;;;;;;;;;;12504821;23;20110;-74
2024/02/29 09:40:23;;;;;;;10.57;6.65;;;;;;;;;;12504800;23;20047;-73
2024/02/29 09:45:30;;;;;;;8.30;6.38;;;;;;;;;;12483697;23;20511;-74
2024/02/29 09:50:33;;;;;;;8.13;5.47;;;;;;;;;;12483142;23;20131;-73
2024/02/29 09:55:37;;;;;;;8.23;6.07;;;;;;;;;;12491545;23;20103;-73
2024/02/29 10:00:42;;;;;;;8.43;6.10;;;;;;;;;;12490835;23;20039;-73
2024/02/29 10:05:45;;;;;;;10.10;7.00;;;;;;;;;;12480497;23;20039;-73
2024/02/29 10:10:49;;;;;;;12.13;8.07;;;;;;;;;;12479827;23;20057;-74
2024/02/29 10:15:54;;;;;;;9.02;5.93;;;;;;;;;;12488685;23;20023;-73
2024/02/29 10:20:58;;;;;;;13.75;9.13;;;;;;;;;;12488728;23;20035;-74
2024/02/29 10:26:01;;;;;;;14.55;8.20;;;;;;;;;;12489029;23;20106;-74
2024/02/29 10:31:06;;;;;;;13.25;8.82;;;;;;;;;;12479898;23;20110;-73
2024/02/29 10:36:11;;;;;;;11.65;7.93;;;;;;;;;;12487978;23;20079;-73
2024/02/29 10:41:16;;;;;;;13.68;9.55;;;;;;;;;;12484165;23;20641;-74
2024/02/29 10:46:21;;;;;;;12.07;8.15;;;;;;;;;;12479289;23;20033;-73
2024/02/29 10:51:33;;;;;;;11.02;6.95;;;;;;;;;;12483576;23;20035;-73
2024/02/29 10:56:38;;;;;;;9.77;6.40;;;;;;;;;;12478627;23;20343;-73
2024/02/29 11:01:45;;;;;;;7.70;4.60;;;;;;;;;;12485756;23;20035;-73
2024/02/29 11:07:14;;;;;;;9.27;6.13;;;;;;;;;;12482519;23;20023;-73
2024/02/29 11:12:19;;;;;;;7.78;5.20;;;;;;;;;;12474172;23;20083;-73
2024/02/29 11:17:27;;;;;;;7.50;4.53;;;;;;;;;;12482361;23;20393;-73
2024/02/29 11:22:35;;;;;;;6.30;4.18;;;;;;;;;;12480778;23;20336;-73
2024/02/29 11:27:46;;;;;;;5.78;3.80;;;;;;;;;;12480597;23;20023;-73
2024/02/29 11:32:51;;;;;;;4.90;3.50;;;;;;;;;;12478003;23;20035;-73
2024/02/29 11:37:57;;;;;;;5.50;3.90;;;;;;;;;;12498615;23;20027;-73
2024/02/29 11:43:01;;;;;;;6.57;4.95;;;;;;;;;;12477942;23;20035;-74
2024/02/29 11:48:06;;;;;;;5.82;4.10;;;;;;;;;;12480303;23;20023;-73
2024/02/29 11:53:10;;;;;;;5.38;3.35;;;;;;;;;;12479403;23;20031;-73
2024/02/29 11:58:13;;;;;;;4.93;3.05;;;;;;;;;;12501174;23;20405;-73
2024/02/29 12:03:18;;;;;;;4.30;2.78;;;;;;;;;;12501197;23;20043;-73
2024/02/29 12:08:22;;;;;;;3.17;2.35;;;;;;;;;;12488658;23;20090;-73
2024/02/29 12:13:26;;;;;;;4.30;2.25;;;;;;;;;;12501812;23;20030;-73
2024/02/29 12:18:31;;;;;;;3.25;2.45;;;;;;;;;;12484281;23;20083;-73
2024/02/29 12:23:34;;;;;;;2.25;1.90;;;;;;;;;;12501278;23;20067;-73
2024/02/29 12:28:38;;;;;;;3.20;2.03;;;;;;;;;;12481941;23;20340;-73
2024/02/29 12:33:43;;;;;;;2.47;2.00;;;;;;;;;;12482771;23;20033;-73
2024/02/29 12:38:48;;;;;;;2.73;1.90;;;;;;;;;;12482954;23;20028;-73
2024/02/29 12:43:54;;;;;;;3.83;2.53;;;;;;;;;;12497399;23;20110;-73
2024/02/29 12:48:58;;;;;;;4.33;2.27;;;;;;;;;;12483494;23;20097;-73
2024/02/29 12:54:02;;;;;;;3.97;2.72;;;;;;;;;;12497658;23;20039;-73
2024/02/29 12:59:05;;;;;;;5.72;2.88;;;;;;;;;;12497221;23;20057;-73
2024/02/29 13:04:10;;;;;;;4.50;3.28;;;;;;;;;;12497124;23;20027;-73
2024/02/29 13:09:19;;;;;;;6.80;4.78;;;;;;;;;;12495826;23;20030;-73
2024/02/29 13:14:22;;;;;;;6.32;4.43;;;;;;;;;;12481046;23;20030;-73
2024/02/29 13:19:27;;;;;;;8.07;5.25;;;;;;;;;;12482788;23;20086;-73
2024/02/29 13:24:30;;;;;;;5.13;3.47;;;;;;;;;;12496089;23;20242;-73
2024/02/29 13:29:34;;;;;;;4.80;3.65;;;;;;;;;;12479809;23;20027;-73
2024/02/29 13:34:38;;;;;;;5.70;3.80;;;;;;;;;;12481662;23;20062;-73
2024/02/29 13:39:41;;;;;;;4.43;3.00;;;;;;;;;;12480226;23;20037;-73
2024/02/29 13:44:45;;;;;;;4.32;3.03;;;;;;;;;;12493341;23;20344;-73
2024/02/29 13:49:50;;;;;;;3.03;2.30;;;;;;;;;;12482325;23;20053;-73
2024/02/29 13:54:53;;;;;;;3.95;2.65;;;;;;;;;;12479711;23;20467;-73
2024/02/29 13:59:56;;;;;;;5.10;2.58;;;;;;;;;;12492418;23;20095;-73
2024/02/29 14:05:01;;;;;;;2.45;2.03;;;;;;;;;;12492458;23;20103;-73
2024/02/29 14:10:06;;;;;;;3.65;2.50;;;;;;;;;;12482067;23;20034;-73
2024/02/29 14:15:11;;;;;;;2.92;2.50;;;;;;;;;;12491507;23;20499;-73
2024/02/29 14:20:16;;;;;;;5.20;3.20;;;;;;;;;;12503729;23;20027;-73
2024/02/29 14:25:19;;;;;;;3.72;2.47;;;;;;;;;;12491721;23;20119;-73
2024/02/29 14:30:22;;;;;;;2.83;2.13;;;;;;;;;;12490276;23;20023;-73
2024/02/29 14:35:27;;;;;;;2.28;1.83;;;;;;;;;;12491289;23;20031;-73
2024/02/29 14:40:30;;;;;;;2.60;1.80;;;;;;;;;;12489864;23;20341;-73
2024/02/29 14:45:34;;;;;;;2.90;2.00;;;;;;;;;;12490272;23;20463;-73
2024/02/29 14:50:39;;;;;;;3.13;2.15;;;;;;;;;;12481255;23;20470;-72
2024/02/29 14:55:42;;;;;;;2.37;1.70;;;;;;;;;;12480222;23;20487;-73
2024/02/29 15:00:46;;;;;;;1.40;1.30;;;;;;;;;;12488680;23;20397;-73
2024/02/29 15:05:50;;;;;;;1.98;1.40;;;;;;;;;;12479528;23;20030;-73
2024/02/29 15:10:53;;;;;;;3.85;2.90;;;;;;;;;;12480449;23;20062;-73
2024/02/29 15:15:57;;;;;;;7.03;4.25;;;;;;;;;;12488341;23;20027;-73
2024/02/29 15:21:01;;;;;;;8.73;5.53;;;;;;;;;;12488558;23;20031;-73
2024/02/29 15:26:09;;;;;;;6.32;4.63;;;;;;;;;;12480451;23;20027;-73
2024/02/29 15:31:12;;;;;;;6.78;4.68;;;;;;;;;;12490729;23;20031;-72
2024/02/29 15:36:17;;;;;;;8.13;4.60;;;;;;;;;;12483747;23;20019;-72
2024/02/29 15:41:20;;;;;;;7.75;4.55;;;;;;;;;;12489763;23;20479;-73
2024/02/29 15:46:23;;;;;;;6.95;4.55;;;;;;;;;;12482607;23;20742;-73
2024/02/29 15:51:30;;;;;;;6.68;4.47;;;;;;;;;;12487911;23;20110;-73
2024/02/29 15:56:33;;;;;;;6.50;4.53;;;;;;;;;;12508212;23;20034;-72
2024/02/29 16:01:37;;;;;;;6.32;4.00;;;;;;;;;;12489017;23;20487;-72
2024/02/29 16:06:41;;;;;;;7.32;4.55;;;;;;;;;;12489894;23;20712;-72
2024/02/29 16:11:45;;;;;;;8.07;5.25;;;;;;;;;;12488357;23;20057;-72
2024/02/29 16:16:48;;;;;;;7.05;5.00;;;;;;;;;;12488551;23;20570;-72
2024/02/29 16:21:53;;;;;;;5.07;4.03;;;;;;;;;;12487700;23;20211;-72
2024/02/29 16:26:56;;;;;;;5.80;4.15;;;;;;;;;;12487318;23;20102;-72
2024/02/29 16:32:01;;;;;;;7.28;4.65;;;;;;;;;;12483351;23;20050;-72
2024/02/29 16:37:06;;;;;;;7.63;4.65;;;;;;;;;;12485549;23;20027;-74
2024/02/29 16:42:10;;;;;;;6.32;4.53;;;;;;;;;;12484593;23;20477;-72
2024/02/29 16:47:13;;;;;;;7.15;5.00;;;;;;;;;;12485579;23;20027;-73
2024/02/29 16:52:19;;;;;;;6.15;4.75;;;;;;;;;;12483011;23;20130;-72
2024/02/29 16:57:22;;;;;;;7.43;5.40;;;;;;;;;;12485464;23;20031;-72
2024/02/29 17:02:26;;;;;;;9.32;6.03;;;;;;;;;;12485222;23;20114;-72
2024/02/29 17:07:30;;;;;;;8.55;5.47;;;;;;;;;;12484530;23;20027;-72
2024/02/29 17:12:34;;;;;;;9.70;5.97;;;;;;;;;;12484376;23;20050;-72
2024/02/29 17:17:38;;;;;;;9.90;6.25;;;;;;;;;;12481822;23;20114;-72
2024/02/29 17:22:45;;;;;;;12.15;6.50;;;;;;;;;;12481360;23;20098;-72
2024/02/29 17:27:49;;;;;;;12.50;7.05;;;;;;;;;;12482312;23;20057;-73
2024/02/29 17:32:53;;;;;;;11.25;7.30;;;;;;;;;;12502583;23;20119;-73
2024/02/29 17:37:58;;;;;;;10.75;7.15;;;;;;;;;;12501309;23;20038;-73
2024/02/29 17:43:01;;;;;;;12.17;7.43;;;;;;;;;;12504943;23;20043;-72
2024/02/29 17:48:05;;;;;;;14.43;8.38;;;;;;;;;;12500992;23;20020;-72
2024/02/29 17:53:10;;;;;;;14.43;9.75;;;;;;;;;;12482837;23;20043;-73
2024/02/29 17:58:13;;;;;;;14.05;9.38;;;;;;;;;;12480632;23;20043;-72
2024/02/29 18:03:16;;;;;;;16.30;10.07;;;;;;;;;;12500008;23;20659;-72
2024/02/29 18:08:21;;;;;;;18.98;10.65;;;;;;;;;;12480702;23;20046;-72
2024/02/29 18:13:24;;;;;;;20.90;11.85;;;;;;;;;;12499112;23;20102;-72
2024/02/29 18:18:28;;;;;;;30.80;14.80;;;;;;;;;;12498877;23;20043;-72
2024/02/29 18:23:32;;;;;;;24.45;12.90;;;;;;;;;;12497869;23;20033;-72
2024/02/29 18:28:35;;;;;;;23.23;12.43;;;;;;;;;;12478473;23;20383;-72
2024/02/29 18:33:39;;;;;;;22.52;12.52;;;;;;;;;;12498615;23;20023;-72
2024/02/29 18:38:44;;;;;;;18.02;11.52;;;;;;;;;;12498819;23;20090;-72
2024/02/29 18:43:48;;;;;;;19.38;11.57;;;;;;;;;;12495658;23;20242;-72
2024/02/29 18:48:51;;;;;;;19.08;11.50;;;;;;;;;;12482858;23;20110;-72
2024/02/29 18:53:55;;;;;;;17.83;11.20;;;;;;;;;;12479935;23;20055;-72
2024/02/29 18:58:59;;;;;;;16.63;10.57;;;;;;;;;;12496843;23;20106;-72
2024/02/29 19:04:02;;;;;;;16.42;9.85;;;;;;;;;;12480550;23;20034;-72
2024/02/29 19:09:07;;;;;;;18.58;11.43;;;;;;;;;;12497173;23;20028;-72
2024/02/29 19:14:11;;;;;;;20.02;12.35;;;;;;;;;;12496551;23;20106;-72
2024/02/29 19:19:14;;;;;;;23.75;13.45;;;;;;;;;;12478508;23;20102;-72
2024/02/29 19:24:19;;;;;;;19.55;12.15;;;;;;;;;;12480372;23;20035;-72
2024/02/29 19:29:22;;;;;;;27.05;14.75;;;;;;;;;;12479612;23;20111;-72
2024/02/29 19:34:28;;;;;;;26.75;14.10;;;;;;;;;;12494508;23;20118;-72
2024/02/29 19:39:34;;;;;;;21.73;12.75;;;;;;;;;;12480993;23;20034;-72
2024/02/29 19:44:37;;;;;;;21.85;11.35;;;;;;;;;;12480073;23;20047;-72
2024/02/29 19:49:41;;;;;;;20.10;12.05;;;;;;;;;;12493378;23;20454;-72
2024/02/29 19:54:46;;;;;;;20.30;11.80;;;;;;;;;;12494077;23;20042;-72
2024/02/29 19:59:50;;;;;;;19.92;12.95;;;;;;;;;;12481922;23;20023;-72
2024/02/29 20:04:53;;;;;;;22.75;13.88;;;;;;;;;;12480453;23;20523;-72
2024/02/29 20:09:58;;;;;;;25.83;14.13;;;;;;;;;;12482366;23;20108;-72
2024/02/29 20:15:05;;;;;;;22.92;13.00;;;;;;;;;;12483563;23;20102;-72
2024/02/29 20:20:10;;;;;;;17.67;11.48;;;;;;;;;;12495153;23;20374;-72
2024/02/29 20:25:46;;;;;;;16.52;10.13;;;;;;;;;;12494772;23;20483;-72
2024/02/29 20:30:50;;;;;;;15.45;10.25;;;;;;;;;;12484480;23;20103;-72
2024/02/29 20:35:53;;;;;;;20.25;12.20;;;;;;;;;;12481475;23;20087;-72
2024/02/29 20:40:58;;;;;;;27.52;16.63;;;;;;;;;;12475964;23;20071;-72
2024/02/29 20:46:01;;;;;;;56.17;27.20;;;;;;;;;;12480846;23;20034;-72
2024/02/29 20:51:05;;;;;;;87.50;34.78;;;;;;;;;;12482033;23;20082;-72
2024/02/29 20:56:09;;;;;;;77.78;32.05;;;;;;;;;;12480898;23;20098;-72
2024/02/29 21:01:13;;;;;;;70.57;30.02;;;;;;;;;;12487405;23;20182;-72
2024/02/29 21:06:17;;;;;;;55.15;25.73;;;;;;;;;;12488248;23;20688;-72
2024/02/29 21:11:21;;;;;;;53.42;25.33;;;;;;;;;;12487311;23;20210;-73
2024/02/29 21:16:25;;;;;;;50.92;24.13;;;;;;;;;;12488103;23;20038;-72
2024/02/29 21:21:29;;;;;;;50.20;23.73;;;;;;;;;;12482329;23;20035;-72
2024/02/29 21:26:33;;;;;;;42.67;21.02;;;;;;;;;;12480611;23;20561;-72
2024/02/29 21:31:37;;;;;;;41.08;19.27;;;;;;;;;;12485875;23;20023;-73
2024/02/29 21:36:40;;;;;;;31.63;16.30;;;;;;;;;;12480226;23;20050;-72
2024/02/29 21:41:45;;;;;;;30.63;15.32;;;;;;;;;;12484864;23;20038;-72
2024/02/29 21:46:48;;;;;;;24.73;13.30;;;;;;;;;;12482645;23;20059;-72
2024/02/29 21:51:52;;;;;;;24.00;12.48;;;;;;;;;;12485614;23;20027;-72
2024/02/29 21:56:57;;;;;;;21.63;11.73;;;;;;;;;;12485818;23;20035;-72
2024/02/29 22:02:01;;;;;;;20.17;11.43;;;;;;;;;;12481365;23;20355;-72
2024/02/29 22:07:04;;;;;;;20.92;12.30;;;;;;;;;;12485434;23;20042;-72
2024/02/29 22:12:09;;;;;;;19.38;11.20;;;;;;;;;;12481402;23;20038;-72
2024/02/29 22:17:12;;;;;;;17.08;11.07;;;;;;;;;;12479782;23;20110;-73
2024/02/29 22:22:17;;;;;;;27.83;15.52;;;;;;;;;;12481174;23;20023;-72
2024/02/29 22:27:21;;;;;;;20.23;11.95;;;;;;;;;;12479662;23;20039;-72
2024/02/29 22:32:25;;;;;;;17.52;11.13;;;;;;;;;;12483006;23;20027;-72
2024/02/29 22:37:28;;;;;;;21.10;11.38;;;;;;;;;;12483016;23;20027;-73
2024/02/29 22:42:33;;;;;;;21.50;11.95;;;;;;;;;;12480626;23;20114;-72
2024/02/29 22:47:36;;;;;;;17.42;10.95;;;;;;;;;;12480409;23;20612;-72
2024/02/29 22:52:40;;;;;;;17.75;10.70;;;;;;;;;;12481431;23;20023;-72
2024/02/29 22:57:45;;;;;;;21.17;11.63;;;;;;;;;;12480930;23;20033;-72
2024/02/29 23:02:48;;;;;;;19.67;11.88;;;;;;;;;;12479534;23;20055;-73
2024/02/29 23:07:52;;;;;;;19.48;11.05;;;;;;;;;;12479938;23;20054;-72
2024/02/29 23:12:57;;;;;;;18.17;11.32;;;;;;;;;;12480625;23;20075;-72
2024/02/29 23:18:01;;;;;;;18.23;9.98;;;;;;;;;;12499668;23;20102;-74
2024/02/29 23:23:05;;;;;;;19.40;10.52;;;;;;;;;;12499184;23;20857;-73
2024/02/29 23:28:10;;;;;;;17.38;10.52;;;;;;;;;;12479253;23;20020;-74
2024/02/29 23:33:13;;;;;;;15.13;9.77;;;;;;;;;;12478178;23;20086;-74
2024/02/29 23:38:16;;;;;;;17.42;10.40;;;;;;;;;;12480967;23;20057;-74
2024/02/29 23:43:21;;;;;;;16.90;10.02;;;;;;;;;;12480914;23;20066;-74
2024/02/29 23:48:24;;;;;;;18.10;9.68;;;;;;;;;;12499296;23;20019;-74
2024/02/29 23:53:28;;;;;;;18.08;9.63;;;;;;;;;;12501245;23;20562;-73
2024/02/29 23:58:32;;;;;;;14.40;8.50;;;;;;;;;;12485022;23;20035;-73
